createdAt,value
2022-12-17T00:02:43.979Z,5.06
2022-12-17T00:05:29.558Z,5.06
2022-12-17T00:08:15.397Z,5.07
2022-12-17T00:11:00.948Z,5.10
2022-12-17T00:13:47.760Z,5.07
2022-12-17T00:16:44.715Z,5.05
2022-12-17T00:19:29.854Z,5.08
2022-12-17T00:22:15.259Z,5.09
2022-12-17T00:25:00.831Z,5.09
2022-12-17T00:27:46.162Z,5.09
2022-12-17T00:30:32.881Z,5.07
2022-12-17T00:33:18.345Z,5.06
2022-12-17T00:36:08.776Z,5.06
2022-12-17T00:38:56.380Z,5.08
2022-12-17T00:41:42.064Z,5.09
2022-12-17T00:44:27.430Z,5.09
2022-12-17T00:47:28.619Z,5.11
2022-12-17T00:50:14.255Z,5.13
2022-12-17T00:52:59.338Z,5.17
2022-12-17T00:55:44.820Z,5.16
2022-12-17T00:58:30.110Z,5.14
2022-12-17T01:01:17.284Z,5.17
2022-12-17T01:04:04.229Z,5.19
2022-12-17T01:06:49.594Z,5.26
2022-12-17T01:09:35.080Z,5.29
2022-12-17T01:12:20.483Z,5.35
2022-12-17T01:15:05.880Z,5.35
2022-12-17T01:17:51.407Z,5.37
2022-12-17T01:20:44.240Z,5.37
2022-12-17T01:23:29.536Z,5.36
2022-12-17T01:26:15.297Z,5.33
2022-12-17T01:29:01.676Z,5.31
2022-12-17T01:31:47.157Z,5.29
2022-12-17T01:34:32.407Z,5.27
2022-12-17T01:37:19.131Z,5.25
2022-12-17T01:40:04.420Z,5.24
2022-12-17T01:42:56.647Z,5.18
2022-12-17T01:45:41.964Z,5.18
2022-12-17T01:48:29.839Z,5.19
2022-12-17T01:51:15.346Z,5.21
2022-12-17T01:54:03.459Z,5.21
2022-12-17T01:57:03.025Z,5.20
2022-12-17T01:59:54.176Z,5.21
2022-12-17T02:02:39.758Z,5.24
2022-12-17T02:05:25.612Z,5.28
2022-12-17T02:08:14.528Z,5.28
2022-12-17T02:11:03.717Z,5.30
2022-12-17T02:14:01.144Z,5.36
2022-12-17T02:16:48.948Z,5.41
2022-12-17T02:19:41.560Z,5.40
2022-12-17T02:22:30.156Z,5.45
2022-12-17T02:25:17.642Z,5.50
2022-12-17T02:28:04.504Z,5.53
2022-12-17T02:30:50.059Z,5.53
2022-12-17T02:33:36.085Z,5.54
2022-12-17T02:36:22.898Z,5.53
2022-12-17T02:39:08.296Z,5.53
2022-12-17T02:41:59.927Z,5.56
2022-12-17T02:44:46.782Z,5.60
2022-12-17T02:47:32.197Z,5.62
2022-12-17T02:50:17.597Z,5.65
2022-12-17T02:53:04.957Z,5.61
2022-12-17T02:55:50.431Z,5.66
2022-12-17T02:58:47.322Z,5.66
2022-12-17T03:01:34.531Z,5.66
2022-12-17T03:04:20.303Z,5.62
2022-12-17T03:07:05.629Z,5.62
2022-12-17T03:09:50.855Z,5.60
2022-12-17T03:12:36.259Z,5.58
2022-12-17T03:15:21.597Z,5.57
2022-12-17T03:18:08.635Z,5.59
2022-12-17T03:20:54.062Z,5.59
2022-12-17T03:23:39.598Z,5.63
2022-12-17T03:26:24.828Z,5.61
2022-12-17T03:29:10.214Z,5.65
2022-12-17T03:32:07.204Z,5.68
2022-12-17T03:34:54.262Z,5.69
2022-12-17T03:37:39.591Z,5.70
2022-12-17T03:40:26.006Z,5.68
2022-12-17T03:43:11.408Z,5.70
2022-12-17T03:45:56.956Z,5.73
2022-12-17T03:48:42.201Z,5.79
2022-12-17T03:51:43.761Z,5.80
2022-12-17T03:54:29.402Z,5.80
2022-12-17T03:57:16.908Z,5.84
2022-12-17T04:00:10.748Z,5.87
2022-12-17T04:02:56.356Z,5.88
2022-12-17T04:05:41.607Z,5.91
2022-12-17T04:08:28.334Z,5.93
2022-12-17T04:11:19.090Z,5.94
2022-12-17T04:14:04.411Z,5.98
2022-12-17T04:16:49.851Z,6.02
2022-12-17T04:19:35.358Z,6.05
2022-12-17T04:22:20.723Z,6.11
2022-12-17T04:25:07.464Z,6.15
2022-12-17T04:27:52.786Z,6.15
2022-12-17T04:30:38.249Z,6.16
2022-12-17T04:33:20.011Z,6.19
2022-12-17T04:36:05.463Z,6.22
2022-12-17T04:38:47.292Z,6.23
2022-12-17T04:41:34.078Z,6.25
2022-12-17T04:44:19.485Z,6.22
2022-12-17T04:47:04.943Z,6.18
2022-12-17T04:49:50.393Z,6.15
2022-12-17T04:52:35.800Z,6.17
2022-12-17T04:55:21.231Z,6.16
2022-12-17T04:58:10.277Z,6.16
2022-12-17T05:00:55.604Z,6.15
2022-12-17T05:03:41.095Z,6.11
2022-12-17T05:06:27.201Z,6.11
2022-12-17T05:09:12.545Z,6.11
2022-12-17T05:11:57.983Z,6.11
2022-12-17T05:14:44.565Z,6.11
2022-12-17T05:17:44.543Z,6.12
2022-12-17T05:20:30.178Z,6.10
2022-12-17T05:23:15.730Z,6.06
2022-12-17T05:26:01.222Z,6.03
2022-12-17T05:28:46.623Z,6.01
2022-12-17T05:31:29.782Z,5.98
2022-12-17T05:34:15.125Z,5.97
2022-12-17T05:37:00.617Z,5.92
2022-12-17T05:39:45.960Z,5.88
2022-12-17T05:42:31.471Z,5.85
2022-12-17T05:45:16.970Z,5.81
2022-12-17T05:48:03.886Z,5.79
2022-12-17T05:51:03.905Z,5.76
2022-12-17T05:53:49.030Z,5.75
2022-12-17T05:56:30.829Z,5.72
2022-12-17T05:59:16.111Z,5.72
2022-12-17T06:02:01.612Z,5.69
2022-12-17T06:04:48.564Z,5.72
2022-12-17T06:07:33.865Z,5.74
2022-12-17T06:10:19.308Z,5.79
2022-12-17T06:13:13.891Z,5.82
2022-12-17T06:15:59.334Z,5.83
2022-12-17T06:18:45.122Z,5.88
2022-12-17T06:21:31.754Z,5.89
2022-12-17T06:24:17.061Z,5.92
2022-12-17T06:27:02.535Z,5.95
2022-12-17T06:29:47.956Z,5.99
2022-12-17T06:32:35.510Z,6.02
2022-12-17T06:35:21.029Z,6.03
2022-12-17T06:38:15.624Z,6.06
2022-12-17T06:41:01.107Z,6.10
2022-12-17T06:43:46.315Z,6.17
2022-12-17T06:46:31.673Z,6.26
2022-12-17T06:49:16.820Z,6.30
2022-12-17T06:52:02.305Z,6.34
2022-12-17T06:54:49.105Z,6.37
2022-12-17T06:57:39.173Z,6.39
2022-12-17T07:00:27.996Z,6.41
2022-12-17T07:03:14.936Z,6.43
2022-12-17T07:06:00.573Z,6.40
2022-12-17T07:08:45.986Z,6.40
2022-12-17T07:11:32.785Z,6.43
2022-12-17T07:14:18.012Z,6.42
2022-12-17T07:17:03.412Z,6.43
2022-12-17T07:19:48.860Z,6.44
2022-12-17T07:22:33.992Z,6.49
2022-12-17T07:25:19.544Z,6.48
2022-12-17T07:28:17.912Z,6.48
2022-12-17T07:31:03.338Z,6.52
2022-12-17T07:33:48.519Z,6.60
2022-12-17T07:36:45.394Z,6.58
2022-12-17T07:39:30.813Z,6.57
2022-12-17T07:42:16.334Z,6.49
2022-12-17T07:45:03.398Z,6.43
2022-12-17T07:47:48.811Z,6.39
2022-12-17T07:50:34.291Z,6.33
2022-12-17T07:53:19.664Z,6.28
2022-12-17T07:56:05.139Z,6.24
2022-12-17T07:58:50.408Z,6.20
2022-12-17T08:01:37.189Z,6.15
2022-12-17T08:04:22.852Z,6.11
2022-12-17T08:07:13.245Z,6.10
2022-12-17T08:09:59.220Z,6.10
2022-12-17T08:12:44.728Z,6.05
2022-12-17T08:15:30.291Z,6.01
2022-12-17T08:18:26.151Z,6.00
2022-12-17T08:21:12.224Z,5.97
2022-12-17T08:23:57.831Z,6.01
2022-12-17T08:26:47.786Z,6.04
2022-12-17T08:29:33.863Z,6.06
2022-12-17T08:32:19.359Z,6.06
2022-12-17T08:35:05.649Z,6.11
2022-12-17T08:37:50.930Z,6.15
2022-12-17T08:40:36.471Z,6.16
2022-12-17T08:43:21.888Z,6.21
2022-12-17T08:46:07.313Z,6.24
2022-12-17T08:48:52.651Z,6.28
2022-12-17T08:51:39.115Z,6.33
2022-12-17T08:54:24.599Z,6.36
2022-12-17T08:57:09.868Z,6.42
2022-12-17T08:59:55.565Z,6.51
2022-12-17T09:02:41.121Z,6.58
2022-12-17T09:05:27.256Z,6.63
2022-12-17T09:08:18.790Z,6.67
2022-12-17T09:11:03.994Z,6.67
2022-12-17T09:13:49.492Z,6.70
2022-12-17T09:16:34.939Z,6.77
2022-12-17T09:19:20.004Z,6.80
2022-12-17T09:22:05.395Z,6.87
2022-12-17T09:24:52.158Z,6.93
2022-12-17T09:27:37.432Z,7.01
2022-12-17T09:30:23.414Z,7.10
2022-12-17T09:33:08.858Z,7.19
2022-12-17T09:35:57.292Z,7.29
2022-12-17T09:38:42.721Z,7.37
2022-12-17T09:41:35.519Z,7.56
2022-12-17T09:44:23.510Z,7.72
2022-12-17T09:47:25.455Z,7.85
2022-12-17T09:50:11.062Z,8.05
2022-12-17T09:52:58.796Z,8.14
2022-12-17T09:55:45.199Z,8.28
2022-12-17T09:58:38.283Z,8.45
2022-12-17T10:01:24.293Z,8.54
2022-12-17T10:04:09.673Z,8.66
2022-12-17T10:06:55.864Z,8.75
2022-12-17T10:09:42.321Z,8.79
2022-12-17T10:12:31.908Z,8.82
2022-12-17T10:15:15.110Z,8.81
2022-12-17T10:18:00.603Z,8.88
2022-12-17T10:20:49.597Z,8.92
2022-12-17T10:23:42.453Z,8.93
2022-12-17T10:26:27.783Z,8.97
2022-12-17T10:29:21.271Z,8.95
2022-12-17T10:32:08.225Z,8.96
2022-12-17T10:34:54.671Z,8.99
2022-12-17T10:37:40.036Z,9.01
2022-12-17T10:40:36.075Z,9.06
2022-12-17T10:43:21.446Z,9.14
2022-12-17T10:46:11.882Z,9.25
2022-12-17T10:48:58.862Z,9.36
2022-12-17T10:51:46.893Z,9.47
2022-12-17T10:54:41.624Z,9.55
2022-12-17T10:57:42.836Z,9.65
2022-12-17T11:00:49.085Z,9.74
2022-12-17T11:03:43.275Z,9.85
2022-12-17T11:06:30.273Z,9.92
2022-12-17T11:09:15.704Z,10.00
2022-12-17T11:12:07.077Z,10.07
2022-12-17T11:15:03.848Z,10.12
2022-12-17T11:17:49.427Z,10.20
2022-12-17T11:20:40.919Z,10.27
2022-12-17T11:23:31.107Z,10.36
2022-12-17T11:26:17.181Z,10.44
2022-12-17T11:29:02.813Z,10.55
2022-12-17T11:32:14.705Z,10.71
2022-12-17T11:35:11.318Z,10.81
2022-12-17T11:37:57.660Z,10.91
2022-12-17T11:40:47.498Z,10.98
2022-12-17T11:43:35.422Z,11.10
2022-12-17T11:46:28.536Z,11.28
2022-12-17T11:49:16.274Z,11.44
2022-12-17T11:52:04.561Z,11.54
2022-12-17T11:54:53.160Z,11.56
2022-12-17T11:57:46.173Z,11.53
2022-12-17T12:00:34.727Z,11.53
2022-12-17T12:03:28.023Z,11.48
2022-12-17T12:06:16.160Z,11.49
2022-12-17T12:09:04.315Z,11.49
2022-12-17T12:11:51.771Z,11.50
2022-12-17T12:14:44.834Z,11.52
2022-12-17T12:17:40.773Z,11.55
2022-12-17T12:20:29.733Z,11.59
2022-12-17T12:23:17.626Z,11.63
2022-12-17T12:26:06.184Z,11.72
2022-12-17T12:28:53.553Z,11.80
2022-12-17T12:31:52.850Z,11.83
2022-12-17T12:34:42.116Z,11.92
2022-12-17T12:37:31.303Z,12.02
2022-12-17T12:40:19.261Z,12.17
2022-12-17T12:43:06.304Z,12.30
2022-12-17T12:45:57.139Z,12.36
2022-12-17T12:48:55.776Z,12.35
2022-12-17T12:51:42.059Z,12.23
2022-12-17T12:54:42.446Z,12.12
2022-12-17T12:57:47.265Z,12.00
2022-12-17T13:00:50.384Z,11.86
2022-12-17T13:03:52.219Z,11.84
2022-12-17T13:06:43.347Z,11.78
2022-12-17T13:09:35.325Z,11.76
2022-12-17T13:12:33.845Z,11.76
2022-12-17T13:15:17.089Z,11.76
2022-12-17T13:17:46.623Z,11.75
2022-12-17T13:20:29.303Z,11.80
2022-12-17T13:23:19.135Z,11.83
2022-12-17T13:25:47.465Z,11.87
2022-12-17T13:28:28.422Z,11.92
2022-12-17T13:31:05.780Z,11.94
2022-12-17T13:33:39.972Z,11.92
2022-12-17T13:36:10.735Z,11.93
2022-12-17T13:38:43.940Z,11.91
2022-12-17T13:41:13.090Z,11.88
2022-12-17T13:43:43.614Z,11.89
2022-12-17T13:46:19.783Z,11.87
2022-12-17T13:48:53.955Z,11.86
2022-12-17T13:51:22.306Z,11.85
2022-12-17T13:53:54.883Z,11.87
2022-12-17T13:56:27.252Z,11.86
2022-12-17T13:58:56.057Z,11.86
2022-12-17T14:01:26.186Z,11.86
2022-12-17T14:04:11.198Z,11.86
2022-12-17T14:06:39.290Z,11.80
2022-12-17T14:09:08.594Z,11.73
2022-12-17T14:11:56.020Z,11.67
2022-12-17T14:14:33.099Z,11.60
2022-12-17T14:17:01.049Z,11.56
2022-12-17T14:19:28.954Z,11.55
2022-12-17T14:21:56.846Z,11.52
2022-12-17T14:24:29.274Z,11.49
2022-12-17T14:26:58.098Z,11.47
2022-12-17T14:29:27.642Z,11.47
2022-12-17T14:31:56.552Z,11.47
2022-12-17T14:34:24.487Z,11.46
2022-12-17T14:36:57.659Z,11.39
2022-12-17T14:39:27.836Z,11.37
2022-12-17T14:42:14.070Z,11.33
2022-12-17T14:44:50.951Z,11.33
2022-12-17T14:47:20.676Z,11.29
2022-12-17T14:49:55.892Z,11.26
2022-12-17T14:52:31.407Z,11.20
2022-12-17T14:55:00.700Z,11.10
2022-12-17T14:57:28.554Z,11.01
2022-12-17T14:59:56.479Z,10.91
2022-12-17T15:02:26.709Z,10.83
2022-12-17T15:04:56.963Z,10.75
2022-12-17T15:07:26.389Z,10.67
2022-12-17T15:09:54.486Z,10.51
2022-12-17T15:12:23.894Z,10.60
2022-12-17T15:14:51.825Z,10.55
2022-12-17T15:17:19.738Z,10.51
2022-12-17T15:19:54.183Z,10.43
2022-12-17T15:22:23.812Z,10.37
2022-12-17T15:24:51.695Z,10.29
2022-12-17T15:27:19.766Z,10.25
2022-12-17T15:29:49.060Z,10.23
2022-12-17T15:32:19.201Z,10.20
2022-12-17T15:34:47.156Z,10.18
2022-12-17T15:37:15.222Z,10.16
2022-12-17T15:39:43.140Z,10.14
2022-12-17T15:42:28.612Z,10.10
2022-12-17T15:44:57.871Z,10.06
2022-12-17T15:49:53.708Z,9.99
2022-12-17T15:52:22.436Z,9.90
2022-12-17T15:54:50.389Z,9.86
2022-12-17T15:57:18.814Z,9.78
2022-12-17T15:59:46.919Z,9.70
2022-12-17T16:02:16.291Z,9.62
2022-12-17T16:04:44.276Z,9.54
2022-12-17T16:07:12.184Z,9.41
2022-12-17T16:09:40.074Z,9.31
2022-12-17T16:12:08.107Z,9.25
2022-12-17T16:14:36.015Z,9.20
2022-12-17T16:17:04.084Z,9.14
2022-12-17T16:19:33.375Z,9.08
2022-12-17T16:22:01.264Z,9.00
2022-12-17T16:24:29.162Z,8.97
2022-12-17T16:27:02.475Z,8.90
2022-12-17T16:29:32.484Z,8.82
2022-12-17T16:32:00.636Z,8.72
2022-12-17T16:34:29.034Z,8.61
2022-12-17T16:36:58.315Z,8.55
2022-12-17T16:39:26.234Z,8.46
2022-12-17T16:41:54.363Z,8.40
2022-12-17T16:44:22.268Z,8.32
2022-12-17T16:46:50.331Z,8.25
2022-12-17T16:49:19.186Z,8.23
2022-12-17T16:51:47.428Z,8.28
2022-12-17T16:54:17.687Z,8.24
2022-12-17T16:56:45.827Z,8.19
2022-12-17T16:59:13.983Z,8.12
2022-12-17T17:01:42.589Z,8.08
2022-12-17T17:04:10.659Z,8.02
2022-12-17T17:06:40.088Z,7.96
2022-12-17T17:09:08.207Z,7.90
2022-12-17T17:11:37.469Z,7.84
2022-12-17T17:14:05.481Z,7.74
2022-12-17T17:16:34.322Z,7.66
2022-12-17T17:19:02.317Z,7.58
2022-12-17T17:21:30.771Z,7.53
2022-12-17T17:23:59.875Z,7.48
2022-12-17T17:26:28.121Z,7.43
2022-12-17T17:28:57.423Z,7.38
2022-12-17T17:31:46.461Z,7.35
2022-12-17T17:34:14.340Z,7.31
2022-12-17T17:36:42.263Z,7.25
2022-12-17T17:39:10.144Z,7.19
2022-12-17T17:41:38.116Z,7.08
2022-12-17T17:44:08.787Z,7.06
2022-12-17T17:46:36.767Z,7.03
2022-12-17T17:49:07.481Z,6.96
2022-12-17T17:52:07.991Z,6.91
2022-12-17T17:54:24.259Z,6.82
2022-12-17T17:56:52.224Z,6.76
2022-12-17T17:59:27.874Z,6.70
2022-12-17T18:02:01.117Z,6.66
2022-12-17T18:04:29.344Z,6.60
2022-12-17T18:09:45.127Z,6.51
2022-12-17T18:12:26.850Z,6.45
2022-12-17T18:17:44.185Z,6.31
2022-12-17T18:20:12.523Z,6.27
2022-12-17T18:22:40.466Z,6.20
2022-12-17T18:25:08.741Z,6.15
2022-12-17T18:27:36.834Z,6.08
2022-12-17T18:30:07.062Z,6.01
2022-12-17T18:32:34.957Z,5.96
2022-12-17T18:35:02.842Z,5.91
2022-12-17T18:37:31.163Z,5.87
2022-12-17T18:39:59.018Z,5.84
2022-12-17T18:42:44.293Z,5.81
2022-12-17T18:45:13.596Z,5.80
2022-12-17T18:47:42.599Z,5.79
2022-12-17T18:50:11.326Z,5.81
2022-12-17T18:52:39.339Z,5.79
2022-12-17T18:55:11.177Z,5.76
2022-12-17T18:57:39.060Z,5.74
2022-12-17T19:00:08.319Z,5.73
2022-12-17T19:02:37.803Z,5.72
2022-12-17T19:05:06.015Z,5.69
2022-12-17T19:07:33.933Z,5.66
2022-12-17T19:10:01.827Z,5.63
2022-12-17T19:12:29.725Z,5.63
2022-12-17T19:14:57.601Z,5.63
2022-12-17T19:17:26.485Z,5.60
2022-12-17T19:19:55.767Z,5.57
2022-12-17T19:22:23.648Z,5.56
2022-12-17T19:24:51.533Z,5.55
2022-12-17T19:27:19.402Z,5.53
2022-12-17T19:29:49.783Z,5.51
2022-12-17T19:32:18.083Z,5.48
2022-12-17T19:34:45.992Z,5.50
2022-12-17T19:37:15.234Z,5.47
2022-12-17T19:39:43.197Z,5.44
2022-12-17T19:42:24.614Z,5.39
2022-12-17T19:44:53.379Z,5.30
2022-12-17T19:47:21.360Z,5.26
2022-12-17T19:49:49.312Z,5.22
2022-12-17T19:52:18.615Z,5.19
2022-12-17T19:54:46.516Z,5.16
2022-12-17T19:57:14.346Z,5.13
2022-12-17T19:59:42.268Z,5.10
2022-12-17T20:02:10.675Z,5.08
2022-12-17T20:04:38.776Z,5.08
2022-12-17T20:07:06.747Z,5.06
2022-12-17T20:09:36.031Z,5.03
2022-12-17T20:12:04.033Z,5.01
2022-12-17T20:14:34.195Z,4.99
2022-12-17T20:17:02.711Z,4.96
2022-12-17T20:19:31.337Z,4.95
2022-12-17T20:21:59.520Z,4.93
2022-12-17T20:24:31.189Z,4.91
2022-12-17T20:27:01.472Z,4.90
2022-12-17T20:29:29.437Z,4.91
2022-12-17T20:31:57.415Z,4.90
2022-12-17T20:34:25.540Z,4.92
2022-12-17T20:36:53.726Z,4.94
2022-12-17T20:39:26.591Z,4.95
2022-12-17T20:41:55.946Z,4.96
2022-12-17T20:44:25.249Z,4.94
2022-12-17T20:46:53.206Z,4.93
2022-12-17T20:49:21.110Z,4.89
2022-12-17T20:51:49.027Z,4.85
2022-12-17T20:54:16.958Z,4.85
2022-12-17T20:56:44.835Z,4.86
2022-12-17T20:59:15.278Z,4.86
2022-12-17T21:01:44.651Z,4.83
2022-12-17T21:04:12.897Z,4.84
2022-12-17T21:06:41.572Z,4.83
2022-12-17T21:09:09.584Z,4.84
2022-12-17T21:11:38.044Z,4.86
2022-12-17T21:14:09.892Z,4.85
2022-12-17T21:16:38.297Z,4.84
2022-12-17T21:19:07.924Z,4.93
2022-12-17T21:21:37.414Z,5.04
2022-12-17T21:24:05.837Z,5.14
2022-12-17T21:26:34.500Z,5.26
2022-12-17T21:29:02.801Z,5.39
2022-12-17T21:31:32.362Z,5.49
2022-12-17T21:34:02.271Z,5.59
2022-12-17T21:36:32.641Z,5.65
2022-12-17T21:39:00.743Z,5.75
2022-12-17T21:41:30.863Z,5.80
2022-12-17T21:43:59.590Z,5.84
2022-12-17T21:46:28.316Z,5.83
2022-12-17T21:48:56.632Z,5.82
2022-12-17T21:51:24.740Z,5.73
2022-12-17T21:53:55.374Z,5.82
2022-12-17T21:56:23.287Z,5.82
2022-12-17T21:58:51.515Z,5.81
2022-12-17T22:01:20.406Z,5.88
2022-12-17T22:03:53.543Z,5.87
2022-12-17T22:06:22.732Z,5.86
2022-12-17T22:08:52.764Z,5.90
2022-12-17T22:11:26.004Z,5.93
2022-12-17T22:14:17.048Z,5.90
2022-12-17T22:16:49.637Z,5.90
2022-12-17T22:19:19.035Z,5.95
2022-12-17T22:21:50.698Z,5.98
2022-12-17T22:24:19.827Z,6.02
2022-12-17T22:26:49.125Z,6.03
2022-12-17T22:29:37.353Z,6.08
2022-12-17T22:32:24.708Z,6.10
2022-12-17T22:36:40.975Z,6.10
2022-12-17T22:41:47.259Z,6.19
2022-12-17T22:42:47.538Z,6.16
2022-12-17T22:44:43.836Z,6.21
2022-12-17T22:46:20.493Z,6.19
2022-12-17T22:48:48.408Z,6.21
2022-12-17T22:51:24.508Z,6.23
2022-12-17T22:53:57.112Z,6.23
2022-12-17T22:56:41.853Z,6.24
2022-12-17T22:59:16.652Z,6.25
2022-12-17T23:01:44.743Z,6.24
2022-12-17T23:04:13.504Z,6.29
2022-12-17T23:06:41.586Z,6.29
2022-12-17T23:09:09.547Z,6.32
2022-12-17T23:11:37.412Z,6.32
2022-12-17T23:14:06.962Z,6.28
2022-12-17T23:16:36.261Z,6.27
2022-12-17T23:19:04.943Z,6.22
2022-12-17T23:21:32.907Z,6.17
2022-12-17T23:24:00.795Z,6.11
2022-12-17T23:26:29.936Z,6.09
2022-12-17T23:29:01.851Z,6.05
2022-12-17T23:31:30.344Z,6.08
2022-12-17T23:33:59.596Z,6.08
2022-12-17T23:36:27.515Z,6.11
2022-12-17T23:38:56.640Z,6.13
2022-12-17T23:41:25.815Z,6.17
2022-12-17T23:43:53.785Z,6.20
2022-12-17T23:46:21.871Z,6.24
2022-12-17T23:48:49.930Z,6.27
2022-12-17T23:51:19.905Z,6.28
2022-12-17T23:53:48.121Z,6.31
2022-12-17T23:56:17.268Z,6.33
2022-12-17T23:58:45.735Z,6.33
